createdAt,value
2023-05-14T00:01:52.033Z,100710.28
2023-05-14T00:04:22.108Z,100711.16
2023-05-14T00:06:49.560Z,100710.22
2023-05-14T00:09:17.153Z,100693.50
2023-05-14T00:11:44.518Z,100704.88
2023-05-14T00:14:12.079Z,100700.59
2023-05-14T00:16:39.576Z,100696.09
2023-05-14T00:19:07.024Z,100687.06
2023-05-14T00:21:34.466Z,100689.69
2023-05-14T00:24:01.766Z,100680.63
2023-05-14T00:26:29.112Z,100681.59
2023-05-14T00:28:56.370Z,100675.19
2023-05-14T00:31:23.795Z,100674.44
2023-05-14T00:33:51.129Z,100678.84
2023-05-14T00:36:18.376Z,100673.56
2023-05-14T00:38:45.924Z,100671.31
2023-05-14T00:41:13.287Z,100665.09
2023-05-14T00:43:40.621Z,100657.88
2023-05-14T00:46:08.182Z,100658.94
2023-05-14T00:48:35.892Z,100657.88
2023-05-14T00:51:03.547Z,100657.13
2023-05-14T00:53:31.580Z,100651.03
2023-05-14T00:55:59.142Z,100647.44
2023-05-14T00:58:26.484Z,100646.72
2023-05-14T01:00:53.999Z,100638.03
2023-05-14T01:03:21.481Z,100638.97
2023-05-14T01:06:07.111Z,100635.41
2023-05-14T01:08:40.485Z,100632.53
2023-05-14T01:11:19.661Z,100624.38
2023-05-14T01:13:59.793Z,100626.25
2023-05-14T01:16:29.100Z,100626.31
2023-05-14T01:18:57.892Z,100611.00
2023-05-14T01:21:38.501Z,100626.13
2023-05-14T01:24:06.458Z,100614.88
2023-05-14T01:26:34.923Z,100618.97
2023-05-14T01:29:22.722Z,100615.50
2023-05-14T01:31:54.335Z,100612.25
2023-05-14T01:34:23.527Z,100613.13
2023-05-14T01:36:52.222Z,100613.69
2023-05-14T01:39:19.948Z,100614.34
2023-05-14T01:41:48.750Z,100606.34
2023-05-14T01:44:16.379Z,100594.06
2023-05-14T01:46:43.714Z,100598.66
2023-05-14T01:49:11.098Z,100593.25
2023-05-14T01:51:38.557Z,100598.66
2023-05-14T01:54:06.019Z,100590.66
2023-05-14T01:56:33.462Z,100582.72
2023-05-14T01:59:00.857Z,100583.00
2023-05-14T02:01:28.204Z,100580.75
2023-05-14T02:03:55.875Z,100581.56
2023-05-14T02:06:23.368Z,100579.63
2023-05-14T02:08:51.045Z,100586.84
2023-05-14T02:11:18.372Z,100578.16
2023-05-14T02:13:45.799Z,100578.22
2023-05-14T02:16:13.324Z,100584.00
2023-05-14T02:18:40.756Z,100580.41
2023-05-14T02:21:08.195Z,100581.19
2023-05-14T02:23:41.420Z,100571.41
2023-05-14T02:26:12.737Z,100574.81
2023-05-14T02:28:40.135Z,100567.75
2023-05-14T02:31:07.492Z,100574.69
2023-05-14T02:33:34.894Z,100564.13
2023-05-14T02:36:02.442Z,100568.75
2023-05-14T02:38:29.929Z,100568.84
2023-05-14T02:40:57.295Z,100562.63
2023-05-14T02:43:24.636Z,100565.19
2023-05-14T02:45:52.692Z,100564.38
2023-05-14T02:48:20.267Z,100554.59
2023-05-14T02:50:50.058Z,100546.66
2023-05-14T02:53:17.467Z,100546.78
2023-05-14T02:55:44.850Z,100543.25
2023-05-14T02:58:12.211Z,100551.13
2023-05-14T03:00:39.548Z,100552.00
2023-05-14T03:03:08.690Z,100538.63
2023-05-14T03:05:36.597Z,100545.78
2023-05-14T03:08:03.932Z,100544.78
2023-05-14T03:10:32.883Z,100532.63
2023-05-14T03:13:00.274Z,100541.59
2023-05-14T03:15:27.732Z,100530.72
2023-05-14T03:17:55.219Z,100531.66
2023-05-14T03:20:24.664Z,100532.84
2023-05-14T03:22:54.368Z,100528.44
2023-05-14T03:25:21.915Z,100524.81
2023-05-14T03:27:49.263Z,100526.84
2023-05-14T03:30:16.653Z,100530.66
2023-05-14T03:32:44.656Z,100534.06
2023-05-14T03:35:12.009Z,100522.88
2023-05-14T03:37:39.416Z,100525.47
2023-05-14T03:40:07.673Z,100531.59
2023-05-14T03:42:37.109Z,100523.50
2023-05-14T03:45:04.841Z,100522.72
2023-05-14T03:47:32.300Z,100528.72
2023-05-14T03:50:01.158Z,100540.06
2023-05-14T03:52:28.556Z,100525.63
2023-05-14T03:54:55.931Z,100522.88
2023-05-14T03:57:23.284Z,100531.66
2023-05-14T03:59:50.633Z,100539.84
2023-05-14T04:02:18.023Z,100522.88
2023-05-14T04:04:45.437Z,100513.88
2023-05-14T04:07:12.863Z,100524.44
2023-05-14T04:09:40.365Z,100529.66
2023-05-14T04:12:08.179Z,100529.66
2023-05-14T04:14:35.650Z,100524.25
2023-05-14T04:17:04.044Z,100520.72
2023-05-14T04:19:31.435Z,100527.50
2023-05-14T04:21:58.880Z,100531.91
2023-05-14T04:24:26.254Z,100526.38
2023-05-14T04:26:53.633Z,100521.91
2023-05-14T04:29:21.122Z,100510.06
2023-05-14T04:31:49.566Z,100525.16
2023-05-14T04:34:17.026Z,100520.78
2023-05-14T04:36:44.378Z,100514.63
2023-05-14T04:39:12.538Z,100524.13
2023-05-14T04:41:40.000Z,100526.81
2023-05-14T04:44:07.655Z,100529.72
2023-05-14T04:46:35.217Z,100528.63
2023-05-14T04:49:02.711Z,100531.09
2023-05-14T04:51:30.077Z,100537.59
2023-05-14T04:53:57.471Z,100535.09
2023-05-14T04:56:25.475Z,100542.38
2023-05-14T04:58:52.836Z,100538.38
2023-05-14T05:01:20.345Z,100539.19
2023-05-14T05:03:47.804Z,100540.06
2023-05-14T05:06:15.426Z,100548.88
2023-05-14T05:08:42.775Z,100548.72
2023-05-14T05:11:10.098Z,100544.66
2023-05-14T05:13:37.456Z,100546.91
2023-05-14T05:16:05.310Z,100543.72
2023-05-14T05:18:32.724Z,100547.84
2023-05-14T05:21:00.153Z,100541.16
2023-05-14T05:23:27.471Z,100542.97
2023-05-14T05:25:54.838Z,100545.28
2023-05-14T05:28:22.190Z,100541.81
2023-05-14T05:30:49.547Z,100549.91
2023-05-14T05:33:16.918Z,100533.72
2023-05-14T05:35:44.774Z,100542.50
2023-05-14T05:38:12.141Z,100543.59
2023-05-14T05:40:39.546Z,100545.72
2023-05-14T05:43:07.103Z,100549.97
2023-05-14T05:45:34.426Z,100552.56
2023-05-14T05:48:02.095Z,100556.97
2023-05-14T05:50:31.720Z,100548.81
2023-05-14T05:53:01.954Z,100540.13
2023-05-14T05:55:29.872Z,100537.38
2023-05-14T05:57:57.228Z,100543.59
2023-05-14T06:00:25.274Z,100557.22
2023-05-14T06:02:53.260Z,100543.09
2023-05-14T06:05:20.722Z,100549.16
2023-05-14T06:07:48.127Z,100540.88
2023-05-14T06:10:15.549Z,100537.19
2023-05-14T06:12:42.925Z,100533.03
2023-05-14T06:15:12.185Z,100541.06
2023-05-14T06:17:39.695Z,100541.50
2023-05-14T06:20:10.424Z,100536.16
2023-05-14T06:22:38.045Z,100537.09
2023-05-14T06:25:05.724Z,100543.00
2023-05-14T06:27:33.447Z,100534.84
2023-05-14T06:30:01.402Z,100537.31
2023-05-14T06:32:29.303Z,100538.44
2023-05-14T06:34:56.669Z,100532.22
2023-05-14T06:37:24.036Z,100533.09
2023-05-14T06:39:51.440Z,100532.00
2023-05-14T06:42:19.105Z,100542.59
2023-05-14T06:44:47.189Z,100532.81
2023-05-14T06:47:14.546Z,100535.44
2023-05-14T06:49:41.948Z,100519.44
2023-05-14T06:52:09.420Z,100520.03
2023-05-14T06:54:36.860Z,100519.94
2023-05-14T06:57:04.395Z,100514.69
2023-05-14T06:59:31.689Z,100522.72
2023-05-14T07:01:59.766Z,100519.06
2023-05-14T07:04:27.188Z,100521.13
2023-05-14T07:06:54.630Z,100522.94
2023-05-14T07:09:22.570Z,100526.47
2023-05-14T07:11:50.660Z,100518.63
2023-05-14T07:14:18.273Z,100528.56
2023-05-14T07:16:47.098Z,100528.53
2023-05-14T07:19:14.659Z,100520.38
2023-05-14T07:21:42.029Z,100510.84
2023-05-14T07:24:09.383Z,100512.41
2023-05-14T07:26:36.779Z,100508.84
2023-05-14T07:29:04.109Z,100498.06
2023-05-14T07:31:31.488Z,100499.94
2023-05-14T07:33:58.871Z,100493.78
2023-05-14T07:36:26.487Z,100494.25
2023-05-14T07:38:53.978Z,100507.53
2023-05-14T07:41:21.565Z,100500.53
2023-05-14T07:43:49.080Z,100494.59
2023-05-14T07:46:16.596Z,100498.00
2023-05-14T07:48:43.990Z,100487.31
2023-05-14T07:51:11.935Z,100485.25
2023-05-14T07:53:39.309Z,100481.34
2023-05-14T07:56:07.154Z,100481.63
2023-05-14T07:58:35.179Z,100485.56
2023-05-14T08:01:07.019Z,100476.66
2023-05-14T08:03:34.863Z,100478.47
2023-05-14T08:06:02.286Z,100463.94
2023-05-14T08:08:29.672Z,100468.22
2023-05-14T08:10:57.083Z,100474.22
2023-05-14T08:13:24.572Z,100458.84
2023-05-14T08:15:52.428Z,100463.66
2023-05-14T08:18:19.783Z,100460.28
2023-05-14T08:20:47.187Z,100457.78
2023-05-14T08:23:14.661Z,100455.25
2023-05-14T08:25:42.012Z,100459.59
2023-05-14T08:28:09.365Z,100449.97
2023-05-14T08:30:36.777Z,100456.44
2023-05-14T08:33:04.881Z,100455.31
2023-05-14T08:35:32.226Z,100459.66
2023-05-14T08:37:59.559Z,100458.94
2023-05-14T08:40:27.323Z,100456.31
2023-05-14T08:42:57.109Z,100452.91
2023-05-14T08:45:34.539Z,100459.66
2023-05-14T08:48:08.876Z,100453.44
2023-05-14T08:50:36.698Z,100464.22
2023-05-14T08:53:04.147Z,100451.97
2023-05-14T08:55:33.489Z,100455.81
2023-05-14T08:58:01.518Z,100456.72
2023-05-14T09:00:29.510Z,100450.63
2023-05-14T09:02:57.734Z,100455.97
2023-05-14T09:05:25.808Z,100459.66
2023-05-14T09:07:53.227Z,100440.94
2023-05-14T09:10:21.680Z,100450.09
2023-05-14T09:12:49.225Z,100459.59
2023-05-14T09:15:16.597Z,100458.88
2023-05-14T09:17:48.089Z,100457.78
2023-05-14T09:20:15.730Z,100451.50
2023-05-14T09:22:43.109Z,100452.97
2023-05-14T09:25:12.398Z,100446.94
2023-05-14T09:27:39.910Z,100443.69
2023-05-14T09:30:13.634Z,100444.22
2023-05-14T09:32:50.342Z,100436.25
2023-05-14T09:35:20.615Z,100443.13
2023-05-14T09:37:50.417Z,100443.22
2023-05-14T09:40:25.139Z,100433.53
2023-05-14T09:42:54.266Z,100433.56
2023-05-14T09:45:21.728Z,100437.78
2023-05-14T09:47:49.650Z,100428.03
2023-05-14T09:50:17.090Z,100433.09
2023-05-14T09:52:44.451Z,100418.09
2023-05-14T09:55:11.992Z,100423.13
2023-05-14T09:57:39.816Z,100422.91
2023-05-14T10:00:08.888Z,100433.63
2023-05-14T10:02:38.180Z,100416.75
2023-05-14T10:05:06.892Z,100415.81
2023-05-14T10:07:41.768Z,100415.47
2023-05-14T10:10:13.574Z,100405.50
2023-05-14T10:12:45.670Z,100407.91
2023-05-14T10:15:22.809Z,100397.97
2023-05-14T10:17:56.154Z,100409.78
2023-05-14T10:20:25.341Z,100401.88
2023-05-14T10:22:53.066Z,100403.47
2023-05-14T10:25:21.806Z,100404.13
2023-05-14T10:27:49.206Z,100405.13
2023-05-14T10:30:16.721Z,100403.13
2023-05-14T10:32:44.349Z,100401.41
2023-05-14T10:35:20.892Z,100408.19
2023-05-14T10:37:51.762Z,100399.09
2023-05-14T10:40:24.659Z,100407.63
2023-05-14T10:42:53.314Z,100393.81
2023-05-14T10:45:24.151Z,100402.72
2023-05-14T10:47:52.140Z,100396.50
2023-05-14T10:50:20.661Z,100391.50
2023-05-14T10:52:52.974Z,100393.78
2023-05-14T10:55:21.761Z,100389.06
2023-05-14T10:57:49.517Z,100390.88
2023-05-14T11:00:17.249Z,100392.84
2023-05-14T11:02:45.176Z,100387.22
2023-05-14T11:05:17.657Z,100383.72
2023-05-14T11:07:48.029Z,100378.22
2023-05-14T11:10:19.524Z,100376.41
2023-05-14T11:12:47.777Z,100379.47
2023-05-14T11:15:20.281Z,100375.53
2023-05-14T11:17:49.976Z,100375.91
2023-05-14T11:20:18.718Z,100377.22
2023-05-14T11:22:48.130Z,100378.44
2023-05-14T11:25:15.948Z,100361.56
2023-05-14T11:27:45.064Z,100375.53
2023-05-14T11:30:14.353Z,100380.53
2023-05-14T11:32:43.698Z,100367.41
2023-05-14T11:35:11.286Z,100354.22
2023-05-14T11:37:38.820Z,100355.47
2023-05-14T11:40:12.066Z,100361.44
2023-05-14T11:42:40.030Z,100364.50
2023-05-14T11:45:11.957Z,100366.38
2023-05-14T11:47:41.519Z,100359.41
2023-05-14T11:50:09.991Z,100348.63
2023-05-14T11:52:41.551Z,100353.75
2023-05-14T11:55:12.942Z,100345.88
2023-05-14T11:57:46.567Z,100348.16
2023-05-14T12:00:14.570Z,100339.16
2023-05-14T12:02:42.476Z,100338.25
2023-05-14T12:05:13.078Z,100340.34
2023-05-14T12:07:40.674Z,100347.63
2023-05-14T12:10:08.718Z,100339.94
2023-05-14T12:12:40.034Z,100333.00
2023-05-14T12:15:14.646Z,100332.94
2023-05-14T12:17:42.215Z,100331.34
2023-05-14T12:20:11.074Z,100326.13
2023-05-14T12:22:39.360Z,100328.91
2023-05-14T12:25:12.938Z,100315.50
2023-05-14T12:27:40.572Z,100321.28
2023-05-14T12:32:41.097Z,100303.06
2023-05-14T12:35:10.279Z,100292.88
2023-05-14T12:37:39.943Z,100309.22
2023-05-14T12:40:10.799Z,100320.97
2023-05-14T12:42:38.168Z,100327.91
2023-05-14T12:45:08.107Z,100330.44
2023-05-14T12:47:36.476Z,100317.78
2023-05-14T12:50:04.375Z,100329.13
2023-05-14T12:52:38.533Z,100326.69
2023-05-14T12:55:10.016Z,100311.84
2023-05-14T12:57:39.299Z,100330.59
2023-05-14T13:00:12.239Z,100322.38
2023-05-14T13:02:42.380Z,100309.25
2023-05-14T13:05:13.971Z,100318.66
2023-05-14T13:07:41.588Z,100322.91
2023-05-14T13:10:09.372Z,100304.25
2023-05-14T13:12:36.840Z,100309.25
2023-05-14T13:15:04.844Z,100312.00
2023-05-14T13:17:33.147Z,100302.94
2023-05-14T13:20:00.719Z,100300.13
2023-05-14T13:22:28.092Z,100302.66
2023-05-14T13:24:55.550Z,100299.19
2023-05-14T13:27:22.903Z,100290.22
2023-05-14T13:29:50.297Z,100289.81
2023-05-14T13:32:17.649Z,100287.31
2023-05-14T13:34:45.129Z,100295.78
2023-05-14T13:37:12.516Z,100289.91
2023-05-14T13:39:41.069Z,100283.06
2023-05-14T13:42:08.576Z,100287.59
2023-05-14T13:44:36.282Z,100284.03
2023-05-14T13:47:03.951Z,100279.72
2023-05-14T13:49:31.361Z,100284.13
2023-05-14T13:51:58.831Z,100281.38
2023-05-14T13:54:26.263Z,100287.66
2023-05-14T13:56:53.624Z,100284.69
2023-05-14T13:59:21.160Z,100272.41
2023-05-14T14:01:50.102Z,100286.28
2023-05-14T14:04:17.775Z,100274.94
2023-05-14T14:06:45.175Z,100274.84
2023-05-14T14:09:13.799Z,100271.22
2023-05-14T14:11:41.319Z,100258.94
2023-05-14T14:14:08.753Z,100268.09
2023-05-14T14:16:36.312Z,100264.56
2023-05-14T14:19:03.876Z,100256.28
2023-05-14T14:21:31.831Z,100264.69
2023-05-14T14:23:59.325Z,100255.44
2023-05-14T14:26:28.022Z,100271.31
2023-05-14T14:28:55.595Z,100266.72
2023-05-14T14:31:23.069Z,100256.63
2023-05-14T14:33:50.640Z,100258.44
2023-05-14T14:36:17.975Z,100261.81
2023-05-14T14:38:45.411Z,100267.88
2023-05-14T14:41:12.884Z,100252.31
2023-05-14T14:43:41.385Z,100253.41
2023-05-14T14:46:09.767Z,100256.19
2023-05-14T14:48:41.302Z,100248.75
2023-05-14T14:51:09.588Z,100241.66
2023-05-14T14:53:37.335Z,100239.72
2023-05-14T14:56:04.985Z,100253.13
2023-05-14T14:58:32.844Z,100250.56
2023-05-14T15:01:01.366Z,100252.31
2023-05-14T15:03:29.260Z,100264.25
2023-05-14T15:05:56.834Z,100259.16
2023-05-14T15:08:28.051Z,100265.22
2023-05-14T15:10:59.391Z,100268.13
2023-05-14T15:13:27.156Z,100269.22
2023-05-14T15:15:54.588Z,100265.91
2023-05-14T15:18:21.891Z,100266.94
2023-05-14T15:20:49.322Z,100262.53
2023-05-14T15:23:16.782Z,100262.38
2023-05-14T15:25:44.928Z,100261.81
2023-05-14T15:28:12.377Z,100260.94
2023-05-14T15:30:39.754Z,100267.25
2023-05-14T15:33:10.861Z,100263.03
2023-05-14T15:35:38.517Z,100271.81
2023-05-14T15:38:06.989Z,100280.78
2023-05-14T15:40:35.254Z,100276.22
2023-05-14T15:43:02.773Z,100275.13
2023-05-14T15:45:30.073Z,100270.56
2023-05-14T15:47:57.610Z,100275.84
2023-05-14T15:50:27.360Z,100268.88
2023-05-14T15:52:54.797Z,100276.06
2023-05-14T15:55:22.248Z,100280.56
2023-05-14T15:57:49.958Z,100275.81
2023-05-14T16:00:17.803Z,100268.41
2023-05-14T16:02:45.376Z,100265.88
2023-05-14T16:05:13.700Z,100274.50
2023-05-14T16:07:42.786Z,100268.63
2023-05-14T16:10:10.617Z,100270.53
2023-05-14T16:12:38.089Z,100259.53
2023-05-14T16:15:07.147Z,100272.00
2023-05-14T16:17:34.799Z,100274.97
2023-05-14T16:20:05.415Z,100268.88
2023-05-14T16:22:34.692Z,100276.19
2023-05-14T16:25:03.488Z,100272.34
2023-05-14T16:27:32.048Z,100269.75
2023-05-14T16:29:59.426Z,100268.94
2023-05-14T16:32:27.684Z,100268.38
2023-05-14T16:34:56.555Z,100270.19
2023-05-14T16:37:24.046Z,100277.78
2023-05-14T16:39:51.403Z,100271.63
2023-05-14T16:42:19.026Z,100273.72
2023-05-14T16:44:46.415Z,100268.47
2023-05-14T16:47:13.944Z,100270.75
2023-05-14T16:49:41.350Z,100261.94
2023-05-14T16:52:08.679Z,100260.03
2023-05-14T16:54:36.422Z,100257.34
2023-05-14T16:57:04.315Z,100259.84
2023-05-14T16:59:31.945Z,100255.34
2023-05-14T17:01:59.451Z,100259.84
2023-05-14T17:04:26.916Z,100261.13
2023-05-14T17:06:54.925Z,100257.59
2023-05-14T17:09:22.285Z,100258.53
2023-05-14T17:11:49.639Z,100259.53
2023-05-14T17:14:17.162Z,100254.31
2023-05-14T17:16:44.574Z,100256.78
2023-05-14T17:19:12.234Z,100252.94
2023-05-14T17:21:40.005Z,100250.63
2023-05-14T17:24:07.506Z,100250.44
2023-05-14T17:26:35.008Z,100247.16
2023-05-14T17:29:02.418Z,100239.56
2023-05-14T17:31:29.849Z,100239.63
2023-05-14T17:33:57.278Z,100246.81
2023-05-14T17:36:25.038Z,100240.69
2023-05-14T17:38:52.670Z,100256.28
2023-05-14T17:41:20.092Z,100250.00
2023-05-14T17:43:47.408Z,100248.03
2023-05-14T17:46:14.801Z,100256.81
2023-05-14T17:48:42.259Z,100248.63
2023-05-14T17:51:09.683Z,100247.09
2023-05-14T17:53:37.051Z,100249.06
2023-05-14T17:56:05.093Z,100255.41
2023-05-14T17:58:32.637Z,100250.72
2023-05-14T18:01:00.229Z,100254.06
2023-05-14T18:03:27.693Z,100256.72
2023-05-14T18:05:55.398Z,100260.13
2023-05-14T18:08:22.765Z,100263.88
2023-05-14T18:10:50.289Z,100258.66
2023-05-14T18:13:17.651Z,100255.94
2023-05-14T18:15:45.023Z,100260.53
2023-05-14T18:18:12.600Z,100250.72
2023-05-14T18:20:40.010Z,100264.09
2023-05-14T18:23:08.120Z,100265.81
2023-05-14T18:25:35.622Z,100264.69
2023-05-14T18:28:03.067Z,100250.78
2023-05-14T18:30:30.467Z,100257.94
2023-05-14T18:32:59.648Z,100262.34
2023-05-14T18:35:27.986Z,100257.00
2023-05-14T18:37:55.587Z,100265.69
2023-05-14T18:40:23.075Z,100256.84
2023-05-14T18:42:50.542Z,100257.75
2023-05-14T18:45:17.886Z,100257.78
2023-05-14T18:47:45.643Z,100255.13
2023-05-14T18:50:13.060Z,100263.22
2023-05-14T18:52:40.459Z,100262.50
2023-05-14T18:55:08.386Z,100258.09
2023-05-14T18:57:36.946Z,100271.31
2023-05-14T19:00:05.224Z,100256.28
2023-05-14T19:02:33.601Z,100267.91
2023-05-14T19:05:01.087Z,100265.97
2023-05-14T19:07:30.333Z,100254.53
2023-05-14T19:09:57.710Z,100270.53
2023-05-14T19:12:25.128Z,100270.44
2023-05-14T19:14:52.901Z,100276.13
2023-05-14T19:17:20.678Z,100275.34
2023-05-14T19:19:48.292Z,100282.50
2023-05-14T19:22:15.864Z,100266.31
2023-05-14T19:24:43.431Z,100271.31
2023-05-14T19:27:12.817Z,100274.78
2023-05-14T19:29:40.173Z,100272.44
2023-05-14T19:32:07.957Z,100284.59
2023-05-14T19:34:35.791Z,100277.00
2023-05-14T19:37:04.006Z,100278.94
2023-05-14T19:39:31.568Z,100277.06
2023-05-14T19:41:59.240Z,100291.44
2023-05-14T19:44:26.816Z,100291.22
2023-05-14T19:46:54.402Z,100292.84
2023-05-14T19:49:21.843Z,100283.75
2023-05-14T19:51:49.319Z,100270.84
2023-05-14T19:54:16.819Z,100273.78
2023-05-14T19:56:44.275Z,100260.56
2023-05-14T19:59:11.946Z,100284.03
2023-05-14T20:01:39.442Z,100283.22
2023-05-14T20:04:07.473Z,100292.38
2023-05-14T20:06:34.936Z,100286.56
2023-05-14T20:09:02.485Z,100295.13
2023-05-14T20:11:29.916Z,100290.13
2023-05-14T20:13:57.392Z,100303.19
2023-05-14T20:16:24.877Z,100292.50
2023-05-14T20:18:54.031Z,100303.19
2023-05-14T20:21:21.510Z,100289.03
2023-05-14T20:23:49.145Z,100299.41
2023-05-14T20:26:16.646Z,100304.75
2023-05-14T20:28:44.182Z,100303.50
2023-05-14T20:31:11.740Z,100304.59
2023-05-14T20:33:39.282Z,100286.19
2023-05-14T20:36:06.777Z,100296.44
2023-05-14T20:38:35.026Z,100297.59
2023-05-14T20:41:02.943Z,100300.06
2023-05-14T20:43:30.436Z,100304.34
2023-05-14T20:45:58.966Z,100304.69
2023-05-14T20:48:26.551Z,100306.09
2023-05-14T20:50:53.964Z,100296.59
2023-05-14T20:53:21.401Z,100292.25
2023-05-14T20:55:48.912Z,100297.47
2023-05-14T20:58:16.280Z,100285.03
2023-05-14T21:00:43.893Z,100285.97
2023-05-14T21:03:11.427Z,100289.56
2023-05-14T21:05:41.499Z,100289.38
2023-05-14T21:08:09.096Z,100295.72
2023-05-14T21:10:36.558Z,100277.34
2023-05-14T21:13:04.175Z,100281.34
2023-05-14T21:15:31.694Z,100268.06
2023-05-14T21:17:59.104Z,100254.81
2023-05-14T21:20:26.759Z,100263.56
2023-05-14T21:22:54.168Z,100277.88
2023-05-14T21:25:21.571Z,100267.19
2023-05-14T21:27:49.141Z,100249.66
2023-05-14T21:30:16.576Z,100274.16
2023-05-14T21:32:44.047Z,100270.53
2023-05-14T21:35:11.576Z,100289.31
2023-05-14T21:37:39.974Z,100266.25
2023-05-14T21:40:09.385Z,100271.00
2023-05-14T21:42:37.259Z,100269.13
2023-05-14T21:45:05.208Z,100279.34
2023-05-14T21:47:33.280Z,100272.84
2023-05-14T21:50:00.665Z,100266.53
2023-05-14T21:52:28.166Z,100263.31
2023-05-14T21:54:55.739Z,100263.38
2023-05-14T21:57:23.205Z,100272.94
2023-05-14T21:59:50.609Z,100279.94
2023-05-14T22:02:18.126Z,100259.56
2023-05-14T22:04:45.621Z,100262.16
2023-05-14T22:07:12.984Z,100260.44
2023-05-14T22:09:40.878Z,100266.56
2023-05-14T22:12:08.444Z,100265.66
2023-05-14T22:14:35.841Z,100247.81
2023-05-14T22:17:03.437Z,100252.34
2023-05-14T22:19:31.322Z,100250.69
2023-05-14T22:21:58.892Z,100243.34
2023-05-14T22:24:26.447Z,100253.50
2023-05-14T22:26:53.869Z,100251.84
2023-05-14T22:29:21.384Z,100240.13
2023-05-14T22:31:49.021Z,100230.63
2023-05-14T22:34:16.631Z,100249.81
2023-05-14T22:36:44.037Z,100231.56
2023-05-14T22:39:13.498Z,100233.22
2023-05-14T22:41:41.151Z,100235.03
2023-05-14T22:44:08.701Z,100220.88
2023-05-14T22:46:36.266Z,100224.03
2023-05-14T22:49:03.606Z,100224.03
2023-05-14T22:51:31.079Z,100227.72
2023-05-14T22:53:58.567Z,100229.44
2023-05-14T22:56:26.043Z,100213.88
2023-05-14T22:58:53.481Z,100204.59
2023-05-14T23:01:21.045Z,100198.38
2023-05-14T23:03:48.517Z,100196.56
2023-05-14T23:06:16.017Z,100207.91
2023-05-14T23:08:44.499Z,100210.31
2023-05-14T23:11:12.018Z,100210.44
2023-05-14T23:13:39.401Z,100219.69
2023-05-14T23:16:07.038Z,100211.84
2023-05-14T23:18:34.728Z,100200.78
2023-05-14T23:21:02.389Z,100204.16
2023-05-14T23:23:29.727Z,100206.97
2023-05-14T23:25:57.201Z,100192.28
2023-05-14T23:28:24.554Z,100195.88
2023-05-14T23:30:51.977Z,100202.03
2023-05-14T23:33:19.391Z,100203.75
2023-05-14T23:35:46.989Z,100181.81
2023-05-14T23:38:14.640Z,100179.94
2023-05-14T23:40:42.165Z,100182.78
2023-05-14T23:43:09.569Z,100176.53
2023-05-14T23:45:37.125Z,100176.47
2023-05-14T23:48:04.929Z,100169.38
2023-05-14T23:50:32.317Z,100180.34
2023-05-14T23:52:59.793Z,100169.78
2023-05-14T23:55:27.416Z,100192.16
2023-05-14T23:57:54.935Z,100171.06
